UGSB/BUS METAR and TAF weather

Enter ICAO airport designator
Station Type Date Time Source
UGSB METAR 2021/06/24 05:30 UTC NOAA

UGSB 240530Z 23004KT 9999 FEW015 BKN028 23/21 Q1014 NOSIG


Station Type Date Time Source
UGSB Decoded METAR 2021/06/24 05:30 UTC NOAA

Station name not available
Jun 24, 2021 - 01:30 AM EDT / 2021.06.24 0530 UTC
Wind: from the SW (230 degrees) at 5 MPH (4 KT):0
Visibility: greater than 7 mile(s):0
Sky conditions: mostly cloudy
Temperature: 73 F (23 C)
Dew Point: 69 F (21 C)
Relative Humidity: 88%
Pressure (altimeter): 29.94 in. Hg (1014 hPa)
ob: UGSB 240530Z 23004KT 9999 FEW015 BKN028 23/21 Q1014 NOSIG
cycle: 5

Station Type Date Time Source
UGSB TAF 2021/06/24 06:04 UTC NOAA

TAF UGSB 240500Z 2406/2506 23005KT 9999 SCT012 BKN025 TX24/2412Z TN21/2502Z
TEMPO 2408/2414 24015KT RA SCT009 BKN020
TEMPO 2416/2419 SHRA SCT009 BKN025CB

Example: see airport list